sensor_id;sensor_type;location;lat;lon;timestamp;P1;durP1;ratioP1;P2;durP2;ratioP2
84286;SDS011;74445;55.252;61.092;2024-02-04T00:00:04;24.85;;;6.55;;
84286;SDS011;74445;55.252;61.092;2024-02-04T00:02:31;22.08;;;8.10;;
84286;SDS011;74445;55.252;61.092;2024-02-04T00:04:59;16.55;;;6.35;;
84286;SDS011;74445;55.252;61.092;2024-02-04T00:07:25;23.10;;;6.70;;
84286;SDS011;74445;55.252;61.092;2024-02-04T00:09:52;16.48;;;6.30;;
84286;SDS011;74445;55.252;61.092;2024-02-04T00:12:19;21.75;;;7.00;;
84286;SDS011;74445;55.252;61.092;2024-02-04T00:14:45;22.80;;;7.10;;
84286;SDS011;74445;55.252;61.092;2024-02-04T00:17:13;21.15;;;6.40;;
84286;SDS011;74445;55.252;61.092;2024-02-04T00:19:40;22.65;;;7.10;;
84286;SDS011;74445;55.252;61.092;2024-02-04T00:22:09;17.15;;;5.47;;
84286;SDS011;74445;55.252;61.092;2024-02-04T00:24:35;15.70;;;6.15;;
84286;SDS011;74445;55.252;61.092;2024-02-04T00:27:02;15.13;;;6.25;;
84286;SDS011;74445;55.252;61.092;2024-02-04T00:29:29;21.20;;;5.20;;
84286;SDS011;74445;55.252;61.092;2024-02-04T00:31:55;29.23;;;6.60;;
84286;SDS011;74445;55.252;61.092;2024-02-04T00:34:22;11.38;;;4.25;;
84286;SDS011;74445;55.252;61.092;2024-02-04T00:36:48;18.90;;;6.88;;
84286;SDS011;74445;55.252;61.092;2024-02-04T00:39:16;16.50;;;4.65;;
84286;SDS011;74445;55.252;61.092;2024-02-04T00:41:43;13.43;;;5.47;;
84286;SDS011;74445;55.252;61.092;2024-02-04T00:44:10;7.97;;;3.45;;
84286;SDS011;74445;55.252;61.092;2024-02-04T00:46:36;11.63;;;5.50;;
84286;SDS011;74445;55.252;61.092;2024-02-04T00:49:03;9.68;;;3.58;;
84286;SDS011;74445;55.252;61.092;2024-02-04T00:51:29;10.20;;;3.88;;
84286;SDS011;74445;55.252;61.092;2024-02-04T00:53:56;17.77;;;5.70;;
84286;SDS011;74445;55.252;61.092;2024-02-04T00:56:24;14.05;;;4.15;;
84286;SDS011;74445;55.252;61.092;2024-02-04T00:58:51;15.38;;;5.47;;
84286;SDS011;74445;55.252;61.092;2024-02-04T01:01:18;19.42;;;5.47;;
84286;SDS011;74445;55.252;61.092;2024-02-04T01:03:46;15.63;;;5.82;;
84286;SDS011;74445;55.252;61.092;2024-02-04T01:09:10;12.75;;;4.03;;
84286;SDS011;74445;55.252;61.092;2024-02-04T01:11:38;15.93;;;5.22;;
84286;SDS011;74445;55.252;61.092;2024-02-04T01:14:05;12.02;;;4.60;;
84286;SDS011;74445;55.252;61.092;2024-02-04T01:16:31;10.80;;;4.40;;
84286;SDS011;74445;55.252;61.092;2024-02-04T01:18:58;16.25;;;3.78;;
84286;SDS011;74445;55.252;61.092;2024-02-04T01:21:24;13.27;;;4.68;;
84286;SDS011;74445;55.252;61.092;2024-02-04T01:23:51;19.58;;;6.03;;
84286;SDS011;74445;55.252;61.092;2024-02-04T01:26:18;16.90;;;5.20;;
84286;SDS011;74445;55.252;61.092;2024-02-04T01:28:46;14.73;;;5.22;;
84286;SDS011;74445;55.252;61.092;2024-02-04T01:31:12;7.80;;;3.53;;
84286;SDS011;74445;55.252;61.092;2024-02-04T01:33:38;17.45;;;6.45;;
84286;SDS011;74445;55.252;61.092;2024-02-04T01:36:05;14.90;;;4.75;;
84286;SDS011;74445;55.252;61.092;2024-02-04T01:38:32;14.90;;;5.35;;
84286;SDS011;74445;55.252;61.092;2024-02-04T01:40:58;16.45;;;5.75;;
84286;SDS011;74445;55.252;61.092;2024-02-04T01:43:25;11.82;;;4.15;;
84286;SDS011;74445;55.252;61.092;2024-02-04T01:45:53;12.20;;;5.35;;
84286;SDS011;74445;55.252;61.092;2024-02-04T01:48:19;12.38;;;4.53;;
84286;SDS011;74445;55.252;61.092;2024-02-04T01:50:47;15.13;;;5.13;;
84286;SDS011;74445;55.252;61.092;2024-02-04T01:53:15;12.85;;;4.25;;
84286;SDS011;74445;55.252;61.092;2024-02-04T01:55:43;16.00;;;4.78;;
84286;SDS011;74445;55.252;61.092;2024-02-04T01:58:10;16.50;;;5.38;;
84286;SDS011;74445;55.252;61.092;2024-02-04T02:00:36;11.52;;;4.22;;
84286;SDS011;74445;55.252;61.092;2024-02-04T02:03:04;15.02;;;3.90;;
84286;SDS011;74445;55.252;61.092;2024-02-04T02:05:32;17.05;;;5.15;;
84286;SDS011;74445;55.252;61.092;2024-02-04T02:07:59;15.00;;;4.03;;
84286;SDS011;74445;55.252;61.092;2024-02-04T02:10:26;13.35;;;3.58;;
84286;SDS011;74445;55.252;61.092;2024-02-04T02:12:54;20.80;;;3.95;;
84286;SDS011;74445;55.252;61.092;2024-02-04T02:15:25;8.98;;;4.10;;
84286;SDS011;74445;55.252;61.092;2024-02-04T02:17:57;10.60;;;3.72;;
84286;SDS011;74445;55.252;61.092;2024-02-04T02:20:27;9.00;;;3.90;;
84286;SDS011;74445;55.252;61.092;2024-02-04T02:23:03;5.25;;;2.42;;
84286;SDS011;74445;55.252;61.092;2024-02-04T02:25:34;12.02;;;3.70;;
84286;SDS011;74445;55.252;61.092;2024-02-04T02:28:02;8.57;;;3.17;;
84286;SDS011;74445;55.252;61.092;2024-02-04T02:30:29;7.47;;;3.17;;
84286;SDS011;74445;55.252;61.092;2024-02-04T02:32:55;11.73;;;3.17;;
84286;SDS011;74445;55.252;61.092;2024-02-04T02:35:23;8.88;;;3.22;;
84286;SDS011;74445;55.252;61.092;2024-02-04T02:37:52;10.38;;;4.45;;
84286;SDS011;74445;55.252;61.092;2024-02-04T02:40:23;7.80;;;2.17;;
84286;SDS011;74445;55.252;61.092;2024-02-04T02:42:55;5.43;;;2.17;;
84286;SDS011;74445;55.252;61.092;2024-02-04T02:45:22;6.53;;;2.58;;
84286;SDS011;74445;55.252;61.092;2024-02-04T02:47:51;10.57;;;3.78;;
84286;SDS011;74445;55.252;61.092;2024-02-04T02:50:19;10.77;;;3.45;;
84286;SDS011;74445;55.252;61.092;2024-02-04T02:52:46;10.18;;;3.33;;
84286;SDS011;74445;55.252;61.092;2024-02-04T02:55:13;8.32;;;3.10;;
84286;SDS011;74445;55.252;61.092;2024-02-04T02:57:39;6.32;;;2.92;;
84286;SDS011;74445;55.252;61.092;2024-02-04T03:00:08;6.35;;;2.50;;
84286;SDS011;74445;55.252;61.092;2024-02-04T03:02:35;6.85;;;2.88;;
84286;SDS011;74445;55.252;61.092;2024-02-04T03:05:01;7.57;;;2.85;;
84286;SDS011;74445;55.252;61.092;2024-02-04T03:07:30;8.50;;;3.63;;
84286;SDS011;74445;55.252;61.092;2024-02-04T03:09:56;8.10;;;2.70;;
84286;SDS011;74445;55.252;61.092;2024-02-04T03:12:22;5.97;;;2.53;;
84286;SDS011;74445;55.252;61.092;2024-02-04T03:14:49;7.75;;;2.65;;
84286;SDS011;74445;55.252;61.092;2024-02-04T03:17:17;8.48;;;2.90;;
84286;SDS011;74445;55.252;61.092;2024-02-04T03:19:48;5.45;;;1.83;;
84286;SDS011;74445;55.252;61.092;2024-02-04T03:22:14;6.80;;;2.63;;
84286;SDS011;74445;55.252;61.092;2024-02-04T03:24:41;10.40;;;2.80;;
84286;SDS011;74445;55.252;61.092;2024-02-04T03:27:07;7.43;;;2.83;;
84286;SDS011;74445;55.252;61.092;2024-02-04T03:29:34;6.00;;;2.13;;
84286;SDS011;74445;55.252;61.092;2024-02-04T03:32:01;7.57;;;3.25;;
84286;SDS011;74445;55.252;61.092;2024-02-04T03:34:29;5.53;;;3.08;;
84286;SDS011;74445;55.252;61.092;2024-02-04T03:36:55;5.47;;;2.25;;
84286;SDS011;74445;55.252;61.092;2024-02-04T03:39:22;6.40;;;2.40;;
84286;SDS011;74445;55.252;61.092;2024-02-04T03:41:48;6.60;;;2.70;;
84286;SDS011;74445;55.252;61.092;2024-02-04T03:44:15;1.75;;;1.17;;
84286;SDS011;74445;55.252;61.092;2024-02-04T03:46:41;3.88;;;1.70;;
84286;SDS011;74445;55.252;61.092;2024-02-04T03:49:08;5.82;;;2.60;;
84286;SDS011;74445;55.252;61.092;2024-02-04T03:51:36;3.25;;;1.95;;
84286;SDS011;74445;55.252;61.092;2024-02-04T03:54:02;2.65;;;1.63;;
84286;SDS011;74445;55.252;61.092;2024-02-04T03:56:29;3.58;;;1.58;;
84286;SDS011;74445;55.252;61.092;2024-02-04T03:58:55;3.03;;;1.60;;
84286;SDS011;74445;55.252;61.092;2024-02-04T04:01:21;1.42;;;0.77;;
84286;SDS011;74445;55.252;61.092;2024-02-04T04:03:48;1.40;;;1.17;;
84286;SDS011;74445;55.252;61.092;2024-02-04T04:06:15;7.45;;;2.78;;
84286;SDS011;74445;55.252;61.092;2024-02-04T04:08:43;7.32;;;3.40;;
84286;SDS011;74445;55.252;61.092;2024-02-04T04:11:09;7.47;;;3.50;;
84286;SDS011;74445;55.252;61.092;2024-02-04T04:13:36;4.15;;;1.52;;
84286;SDS011;74445;55.252;61.092;2024-02-04T04:16:03;1.77;;;0.95;;
84286;SDS011;74445;55.252;61.092;2024-02-04T04:18:30;1.77;;;1.25;;
84286;SDS011;74445;55.252;61.092;2024-02-04T04:20:57;5.60;;;2.50;;
84286;SDS011;74445;55.252;61.092;2024-02-04T04:23:23;8.32;;;2.30;;
84286;SDS011;74445;55.252;61.092;2024-02-04T04:25:51;4.38;;;1.88;;
84286;SDS011;74445;55.252;61.092;2024-02-04T04:28:17;7.40;;;2.58;;
84286;SDS011;74445;55.252;61.092;2024-02-04T04:30:44;4.53;;;2.60;;
84286;SDS011;74445;55.252;61.092;2024-02-04T04:33:11;3.13;;;1.92;;
84286;SDS011;74445;55.252;61.092;2024-02-04T04:35:37;7.68;;;1.88;;
84286;SDS011;74445;55.252;61.092;2024-02-04T04:38:04;7.35;;;3.03;;
84286;SDS011;74445;55.252;61.092;2024-02-04T04:40:31;6.03;;;2.80;;
84286;SDS011;74445;55.252;61.092;2024-02-04T04:42:59;8.13;;;2.67;;
84286;SDS011;74445;55.252;61.092;2024-02-04T04:45:25;4.15;;;1.90;;
84286;SDS011;74445;55.252;61.092;2024-02-04T04:47:51;4.82;;;1.95;;
84286;SDS011;74445;55.252;61.092;2024-02-04T04:50:18;5.18;;;2.60;;
84286;SDS011;74445;55.252;61.092;2024-02-04T04:52:45;5.57;;;2.22;;
84286;SDS011;74445;55.252;61.092;2024-02-04T04:55:12;7.95;;;1.98;;
84286;SDS011;74445;55.252;61.092;2024-02-04T04:57:38;10.90;;;2.47;;
84286;SDS011;74445;55.252;61.092;2024-02-04T05:00:07;4.57;;;2.17;;
84286;SDS011;74445;55.252;61.092;2024-02-04T05:02:35;7.55;;;3.13;;
84286;SDS011;74445;55.252;61.092;2024-02-04T05:05:02;4.28;;;2.40;;
84286;SDS011;74445;55.252;61.092;2024-02-04T05:07:30;6.07;;;2.65;;
84286;SDS011;74445;55.252;61.092;2024-02-04T05:09:56;5.43;;;2.17;;
84286;SDS011;74445;55.252;61.092;2024-02-04T05:12:23;9.95;;;2.58;;
84286;SDS011;74445;55.252;61.092;2024-02-04T05:14:49;8.10;;;2.78;;
84286;SDS011;74445;55.252;61.092;2024-02-04T05:17:17;3.65;;;2.00;;
84286;SDS011;74445;55.252;61.092;2024-02-04T05:19:44;9.32;;;3.22;;
84286;SDS011;74445;55.252;61.092;2024-02-04T05:22:10;4.65;;;2.30;;
84286;SDS011;74445;55.252;61.092;2024-02-04T05:24:36;3.97;;;1.98;;
84286;SDS011;74445;55.252;61.092;2024-02-04T05:27:03;7.25;;;2.42;;
84286;SDS011;74445;55.252;61.092;2024-02-04T05:29:30;5.60;;;2.28;;
84286;SDS011;74445;55.252;61.092;2024-02-04T05:31:56;4.80;;;2.08;;
84286;SDS011;74445;55.252;61.092;2024-02-04T05:34:24;4.45;;;2.60;;
84286;SDS011;74445;55.252;61.092;2024-02-04T05:36:51;4.57;;;1.90;;
84286;SDS011;74445;55.252;61.092;2024-02-04T05:39:17;5.93;;;2.50;;
84286;SDS011;74445;55.252;61.092;2024-02-04T05:41:44;4.00;;;1.83;;
84286;SDS011;74445;55.252;61.092;2024-02-04T05:44:11;2.72;;;1.88;;
84286;SDS011;74445;55.252;61.092;2024-02-04T05:46:37;4.22;;;2.47;;
84286;SDS011;74445;55.252;61.092;2024-02-04T05:49:04;7.20;;;2.67;;
84286;SDS011;74445;55.252;61.092;2024-02-04T05:51:37;5.60;;;2.17;;
84286;SDS011;74445;55.252;61.092;2024-02-04T05:54:04;6.32;;;2.45;;
84286;SDS011;74445;55.252;61.092;2024-02-04T05:56:31;3.58;;;1.75;;
84286;SDS011;74445;55.252;61.092;2024-02-04T05:58:57;5.93;;;2.60;;
84286;SDS011;74445;55.252;61.092;2024-02-04T06:01:24;6.65;;;2.70;;
84286;SDS011;74445;55.252;61.092;2024-02-04T06:03:50;2.53;;;1.60;;
84286;SDS011;74445;55.252;61.092;2024-02-04T06:06:17;9.98;;;2.50;;
84286;SDS011;74445;55.252;61.092;2024-02-04T06:08:48;4.13;;;2.00;;
84286;SDS011;74445;55.252;61.092;2024-02-04T06:11:15;4.60;;;2.33;;
84286;SDS011;74445;55.252;61.092;2024-02-04T06:13:42;3.85;;;2.30;;
84286;SDS011;74445;55.252;61.092;2024-02-04T06:16:09;6.78;;;2.63;;
84286;SDS011;74445;55.252;61.092;2024-02-04T06:18:37;4.70;;;2.17;;
84286;SDS011;74445;55.252;61.092;2024-02-04T06:21:04;6.40;;;2.17;;
84286;SDS011;74445;55.252;61.092;2024-02-04T06:23:30;2.97;;;1.35;;
84286;SDS011;74445;55.252;61.092;2024-02-04T06:25:59;4.95;;;2.33;;
84286;SDS011;74445;55.252;61.092;2024-02-04T06:28:25;9.02;;;2.40;;
84286;SDS011;74445;55.252;61.092;2024-02-04T06:30:52;5.00;;;2.20;;
84286;SDS011;74445;55.252;61.092;2024-02-04T06:33:19;5.15;;;2.40;;
84286;SDS011;74445;55.252;61.092;2024-02-04T06:35:46;5.78;;;2.15;;
84286;SDS011;74445;55.252;61.092;2024-02-04T06:38:13;5.18;;;2.38;;
84286;SDS011;74445;55.252;61.092;2024-02-04T06:40:39;6.47;;;2.17;;
84286;SDS011;74445;55.252;61.092;2024-02-04T06:43:07;2.50;;;1.70;;
84286;SDS011;74445;55.252;61.092;2024-02-04T06:45:34;7.65;;;2.42;;
84286;SDS011;74445;55.252;61.092;2024-02-04T06:48:00;6.75;;;2.10;;
84286;SDS011;74445;55.252;61.092;2024-02-04T06:50:28;5.00;;;2.10;;
84286;SDS011;74445;55.252;61.092;2024-02-04T06:52:55;5.85;;;2.30;;
84286;SDS011;74445;55.252;61.092;2024-02-04T06:55:21;6.10;;;2.30;;
84286;SDS011;74445;55.252;61.092;2024-02-04T06:57:47;4.80;;;2.30;;
84286;SDS011;74445;55.252;61.092;2024-02-04T07:00:16;4.40;;;2.30;;
84286;SDS011;74445;55.252;61.092;2024-02-04T07:02:42;7.15;;;3.00;;
84286;SDS011;74445;55.252;61.092;2024-02-04T07:05:09;7.88;;;2.53;;
84286;SDS011;74445;55.252;61.092;2024-02-04T07:07:36;5.97;;;2.17;;
84286;SDS011;74445;55.252;61.092;2024-02-04T07:10:03;3.33;;;1.90;;
84286;SDS011;74445;55.252;61.092;2024-02-04T07:12:30;2.78;;;1.88;;
84286;SDS011;74445;55.252;61.092;2024-02-04T07:14:57;4.88;;;2.90;;
84286;SDS011;74445;55.252;61.092;2024-02-04T07:17:25;6.47;;;2.60;;
84286;SDS011;74445;55.252;61.092;2024-02-04T07:19:52;5.82;;;2.25;;
84286;SDS011;74445;55.252;61.092;2024-02-04T07:22:19;6.40;;;2.08;;
84286;SDS011;74445;55.252;61.092;2024-02-04T07:24:45;4.22;;;2.53;;
84286;SDS011;74445;55.252;61.092;2024-02-04T07:27:11;5.78;;;2.15;;
84286;SDS011;74445;55.252;61.092;2024-02-04T07:29:38;5.80;;;2.47;;
84286;SDS011;74445;55.252;61.092;2024-02-04T07:32:04;4.45;;;2.25;;
84286;SDS011;74445;55.252;61.092;2024-02-04T07:34:33;5.22;;;2.28;;
84286;SDS011;74445;55.252;61.092;2024-02-04T07:36:59;6.47;;;3.03;;
84286;SDS011;74445;55.252;61.092;2024-02-04T07:39:26;3.05;;;1.83;;
84286;SDS011;74445;55.252;61.092;2024-02-04T07:41:52;3.35;;;1.70;;
84286;SDS011;74445;55.252;61.092;2024-02-04T07:44:21;3.33;;;1.95;;
84286;SDS011;74445;55.252;61.092;2024-02-04T07:46:50;3.45;;;1.92;;
84286;SDS011;74445;55.252;61.092;2024-02-04T07:49:16;3.22;;;1.80;;
84286;SDS011;74445;55.252;61.092;2024-02-04T07:51:44;4.65;;;2.25;;
84286;SDS011;74445;55.252;61.092;2024-02-04T07:54:10;3.17;;;2.00;;
84286;SDS011;74445;55.252;61.092;2024-02-04T07:56:37;4.82;;;2.45;;
84286;SDS011;74445;55.252;61.092;2024-02-04T07:59:03;4.78;;;2.08;;
84286;SDS011;74445;55.252;61.092;2024-02-04T08:01:30;4.57;;;1.75;;
84286;SDS011;74445;55.252;61.092;2024-02-04T08:03:57;2.47;;;1.65;;
84286;SDS011;74445;55.252;61.092;2024-02-04T08:06:23;4.82;;;2.60;;
84286;SDS011;74445;55.252;61.092;2024-02-04T08:08:51;4.57;;;2.30;;
84286;SDS011;74445;55.252;61.092;2024-02-04T08:11:18;5.75;;;2.10;;
84286;SDS011;74445;55.252;61.092;2024-02-04T08:13:45;4.78;;;2.10;;
84286;SDS011;74445;55.252;61.092;2024-02-04T08:16:11;4.72;;;2.17;;
84286;SDS011;74445;55.252;61.092;2024-02-04T08:18:38;3.78;;;2.10;;
84286;SDS011;74445;55.252;61.092;2024-02-04T08:21:04;6.03;;;2.20;;
84286;SDS011;74445;55.252;61.092;2024-02-04T08:23:31;4.22;;;2.13;;
84286;SDS011;74445;55.252;61.092;2024-02-04T08:25:59;5.68;;;2.42;;
84286;SDS011;74445;55.252;61.092;2024-02-04T08:28:26;3.65;;;2.15;;
84286;SDS011;74445;55.252;61.092;2024-02-04T08:30:52;3.42;;;2.05;;
84286;SDS011;74445;55.252;61.092;2024-02-04T08:33:19;6.13;;;2.38;;
84286;SDS011;74445;55.252;61.092;2024-02-04T08:35:45;5.35;;;2.00;;
84286;SDS011;74445;55.252;61.092;2024-02-04T08:38:12;3.67;;;2.05;;
84286;SDS011;74445;55.252;61.092;2024-02-04T08:40:38;3.80;;;2.20;;
84286;SDS011;74445;55.252;61.092;2024-02-04T08:43:06;5.72;;;2.13;;
84286;SDS011;74445;55.252;61.092;2024-02-04T08:45:33;4.93;;;2.17;;
84286;SDS011;74445;55.252;61.092;2024-02-04T08:47:59;5.53;;;2.28;;
84286;SDS011;74445;55.252;61.092;2024-02-04T08:50:26;5.35;;;2.10;;
84286;SDS011;74445;55.252;61.092;2024-02-04T08:52:52;5.10;;;2.10;;
84286;SDS011;74445;55.252;61.092;2024-02-04T08:55:19;5.70;;;2.25;;
84286;SDS011;74445;55.252;61.092;2024-02-04T08:57:45;3.17;;;2.00;;
84286;SDS011;74445;55.252;61.092;2024-02-04T09:00:15;6.53;;;2.75;;
84286;SDS011;74445;55.252;61.092;2024-02-04T09:02:42;2.30;;;1.60;;
84286;SDS011;74445;55.252;61.092;2024-02-04T09:05:09;2.58;;;1.80;;
84286;SDS011;74445;55.252;61.092;2024-02-04T09:07:36;8.85;;;2.58;;
84286;SDS011;74445;55.252;61.092;2024-02-04T09:10:03;5.10;;;2.70;;
84286;SDS011;74445;55.252;61.092;2024-02-04T09:12:30;5.50;;;2.58;;
84286;SDS011;74445;55.252;61.092;2024-02-04T09:14:57;3.80;;;1.95;;
84286;SDS011;74445;55.252;61.092;2024-02-04T09:17:25;3.97;;;2.28;;
84286;SDS011;74445;55.252;61.092;2024-02-04T09:19:51;5.78;;;2.80;;
84286;SDS011;74445;55.252;61.092;2024-02-04T09:22:18;4.25;;;2.17;;
84286;SDS011;74445;55.252;61.092;2024-02-04T09:24:45;8.82;;;3.50;;
84286;SDS011;74445;55.252;61.092;2024-02-04T09:27:12;4.90;;;2.60;;
84286;SDS011;74445;55.252;61.092;2024-02-04T09:29:38;3.50;;;2.20;;
84286;SDS011;74445;55.252;61.092;2024-02-04T09:32:05;6.32;;;2.30;;
84286;SDS011;74445;55.252;61.092;2024-02-04T09:34:33;7.10;;;2.40;;
84286;SDS011;74445;55.252;61.092;2024-02-04T09:37:00;4.43;;;2.50;;
84286;SDS011;74445;55.252;61.092;2024-02-04T09:39:28;6.43;;;2.58;;
84286;SDS011;74445;55.252;61.092;2024-02-04T09:41:55;8.05;;;2.42;;
84286;SDS011;74445;55.252;61.092;2024-02-04T09:44:22;8.93;;;3.10;;
84286;SDS011;74445;55.252;61.092;2024-02-04T09:46:50;4.47;;;2.63;;
84286;SDS011;74445;55.252;61.092;2024-02-04T09:49:17;6.35;;;2.65;;
84286;SDS011;74445;55.252;61.092;2024-02-04T09:51:46;7.00;;;2.90;;
84286;SDS011;74445;55.252;61.092;2024-02-04T09:54:13;6.07;;;2.60;;
84286;SDS011;74445;55.252;61.092;2024-02-04T09:56:42;5.35;;;3.45;;
84286;SDS011;74445;55.252;61.092;2024-02-04T09:59:08;8.27;;;3.03;;
84286;SDS011;74445;55.252;61.092;2024-02-04T10:01:35;8.48;;;3.08;;
84286;SDS011;74445;55.252;61.092;2024-02-04T10:04:01;5.55;;;2.83;;
84286;SDS011;74445;55.252;61.092;2024-02-04T10:06:28;6.55;;;3.15;;
84286;SDS011;74445;55.252;61.092;2024-02-04T10:08:57;6.88;;;3.13;;
84286;SDS011;74445;55.252;61.092;2024-02-04T10:11:23;7.45;;;2.90;;
84286;SDS011;74445;55.252;61.092;2024-02-04T10:13:50;5.70;;;3.05;;
84286;SDS011;74445;55.252;61.092;2024-02-04T10:16:16;8.07;;;3.35;;
84286;SDS011;74445;55.252;61.092;2024-02-04T10:18:43;6.45;;;3.30;;
84286;SDS011;74445;55.252;61.092;2024-02-04T10:21:17;7.93;;;3.13;;
84286;SDS011;74445;55.252;61.092;2024-02-04T10:23:45;7.15;;;3.30;;
84286;SDS011;74445;55.252;61.092;2024-02-04T10:26:13;7.47;;;3.78;;
84286;SDS011;74445;55.252;61.092;2024-02-04T10:28:40;6.13;;;3.20;;
84286;SDS011;74445;55.252;61.092;2024-02-04T10:31:08;6.30;;;2.72;;
84286;SDS011;74445;55.252;61.092;2024-02-04T10:33:37;7.65;;;2.75;;
84286;SDS011;74445;55.252;61.092;2024-02-04T10:36:04;4.78;;;2.28;;
84286;SDS011;74445;55.252;61.092;2024-02-04T10:38:31;5.10;;;2.80;;
84286;SDS011;74445;55.252;61.092;2024-02-04T10:40:59;6.53;;;2.90;;
84286;SDS011;74445;55.252;61.092;2024-02-04T10:43:31;6.18;;;2.90;;
84286;SDS011;74445;55.252;61.092;2024-02-04T10:48:30;5.40;;;2.67;;
84286;SDS011;74445;55.252;61.092;2024-02-04T10:51:10;3.53;;;2.22;;
84286;SDS011;74445;55.252;61.092;2024-02-04T10:53:42;5.07;;;2.70;;
84286;SDS011;74445;55.252;61.092;2024-02-04T10:56:13;4.70;;;3.20;;
84286;SDS011;74445;55.252;61.092;2024-02-04T10:58:45;5.15;;;2.80;;
84286;SDS011;74445;55.252;61.092;2024-02-04T11:01:13;5.22;;;2.90;;
84286;SDS011;74445;55.252;61.092;2024-02-04T11:03:40;4.97;;;2.63;;
84286;SDS011;74445;55.252;61.092;2024-02-04T11:06:07;4.82;;;2.60;;
84286;SDS011;74445;55.252;61.092;2024-02-04T11:08:35;9.63;;;2.67;;
84286;SDS011;74445;55.252;61.092;2024-02-04T11:11:02;5.80;;;3.08;;
84286;SDS011;74445;55.252;61.092;2024-02-04T11:13:29;6.15;;;2.75;;
84286;SDS011;74445;55.252;61.092;2024-02-04T11:15:58;4.18;;;2.70;;
84286;SDS011;74445;55.252;61.092;2024-02-04T11:18:39;8.32;;;3.17;;
84286;SDS011;74445;55.252;61.092;2024-02-04T11:21:23;8.18;;;3.25;;
84286;SDS011;74445;55.252;61.092;2024-02-04T11:24:04;10.48;;;4.22;;
84286;SDS011;74445;55.252;61.092;2024-02-04T11:26:41;6.45;;;3.50;;
84286;SDS011;74445;55.252;61.092;2024-02-04T11:29:08;6.05;;;2.88;;
84286;SDS011;74445;55.252;61.092;2024-02-04T11:31:38;7.18;;;3.20;;
84286;SDS011;74445;55.252;61.092;2024-02-04T11:34:05;6.40;;;3.58;;
84286;SDS011;74445;55.252;61.092;2024-02-04T11:36:37;5.88;;;2.58;;
84286;SDS011;74445;55.252;61.092;2024-02-04T11:39:11;6.22;;;3.17;;
84286;SDS011;74445;55.252;61.092;2024-02-04T11:41:44;6.28;;;3.10;;
84286;SDS011;74445;55.252;61.092;2024-02-04T11:44:12;9.70;;;3.75;;
84286;SDS011;74445;55.252;61.092;2024-02-04T11:46:47;6.13;;;3.00;;
84286;SDS011;74445;55.252;61.092;2024-02-04T11:49:14;5.22;;;3.03;;
84286;SDS011;74445;55.252;61.092;2024-02-04T11:51:44;5.78;;;2.97;;
84286;SDS011;74445;55.252;61.092;2024-02-04T11:54:14;5.80;;;2.72;;
84286;SDS011;74445;55.252;61.092;2024-02-04T11:56:42;7.68;;;3.20;;
84286;SDS011;74445;55.252;61.092;2024-02-04T11:59:09;8.32;;;3.22;;
84286;SDS011;74445;55.252;61.092;2024-02-04T12:01:37;6.53;;;2.92;;
84286;SDS011;74445;55.252;61.092;2024-02-04T12:04:12;7.95;;;3.05;;
84286;SDS011;74445;55.252;61.092;2024-02-04T12:06:40;7.45;;;3.25;;
84286;SDS011;74445;55.252;61.092;2024-02-04T12:09:07;5.38;;;3.03;;
84286;SDS011;74445;55.252;61.092;2024-02-04T12:11:34;9.32;;;3.67;;
84286;SDS011;74445;55.252;61.092;2024-02-04T12:14:02;6.72;;;3.47;;
84286;SDS011;74445;55.252;61.092;2024-02-04T12:16:29;8.77;;;3.35;;
84286;SDS011;74445;55.252;61.092;2024-02-04T12:18:56;10.25;;;4.38;;
84286;SDS011;74445;55.252;61.092;2024-02-04T12:21:25;10.15;;;3.53;;
84286;SDS011;74445;55.252;61.092;2024-02-04T12:23:51;7.57;;;3.13;;
84286;SDS011;74445;55.252;61.092;2024-02-04T12:26:18;14.13;;;3.85;;
84286;SDS011;74445;55.252;61.092;2024-02-04T12:28:44;11.52;;;4.07;;
84286;SDS011;74445;55.252;61.092;2024-02-04T12:31:16;8.27;;;3.78;;
84286;SDS011;74445;55.252;61.092;2024-02-04T12:33:51;12.50;;;4.03;;
84286;SDS011;74445;55.252;61.092;2024-02-04T12:36:19;7.07;;;3.25;;
84286;SDS011;74445;55.252;61.092;2024-02-04T12:38:51;7.85;;;3.55;;
84286;SDS011;74445;55.252;61.092;2024-02-04T12:41:19;9.10;;;3.83;;
84286;SDS011;74445;55.252;61.092;2024-02-04T12:43:48;11.55;;;3.67;;
84286;SDS011;74445;55.252;61.092;2024-02-04T12:46:16;14.20;;;3.47;;
84286;SDS011;74445;55.252;61.092;2024-02-04T12:48:42;12.20;;;3.75;;
84286;SDS011;74445;55.252;61.092;2024-02-04T12:51:09;13.10;;;3.50;;
84286;SDS011;74445;55.252;61.092;2024-02-04T12:53:38;9.02;;;3.20;;
84286;SDS011;74445;55.252;61.092;2024-02-04T12:56:07;14.63;;;3.67;;
84286;SDS011;74445;55.252;61.092;2024-02-04T12:58:41;10.63;;;3.53;;
84286;SDS011;74445;55.252;61.092;2024-02-04T13:01:09;6.93;;;3.33;;
84286;SDS011;74445;55.252;61.092;2024-02-04T13:03:35;8.52;;;3.30;;
84286;SDS011;74445;55.252;61.092;2024-02-04T13:06:02;10.05;;;3.58;;
84286;SDS011;74445;55.252;61.092;2024-02-04T13:08:29;7.65;;;3.65;;
84286;SDS011;74445;55.252;61.092;2024-02-04T13:10:56;8.93;;;3.75;;
84286;SDS011;74445;55.252;61.092;2024-02-04T13:13:25;8.45;;;3.25;;
84286;SDS011;74445;55.252;61.092;2024-02-04T13:15:54;7.30;;;3.83;;
84286;SDS011;74445;55.252;61.092;2024-02-04T13:18:21;6.18;;;3.00;;
84286;SDS011;74445;55.252;61.092;2024-02-04T13:20:48;6.00;;;3.15;;
84286;SDS011;74445;55.252;61.092;2024-02-04T13:23:14;6.65;;;3.25;;
84286;SDS011;74445;55.252;61.092;2024-02-04T13:25:41;6.03;;;3.10;;
84286;SDS011;74445;55.252;61.092;2024-02-04T13:28:07;6.95;;;3.47;;
84286;SDS011;74445;55.252;61.092;2024-02-04T13:30:35;6.45;;;2.80;;
84286;SDS011;74445;55.252;61.092;2024-02-04T13:33:02;6.22;;;3.38;;
84286;SDS011;74445;55.252;61.092;2024-02-04T13:35:29;5.28;;;2.72;;
84286;SDS011;74445;55.252;61.092;2024-02-04T13:37:55;6.57;;;3.10;;
84286;SDS011;74445;55.252;61.092;2024-02-04T13:40:22;10.20;;;4.60;;
84286;SDS011;74445;55.252;61.092;2024-02-04T13:42:49;9.75;;;3.47;;
84286;SDS011;74445;55.252;61.092;2024-02-04T13:45:16;7.22;;;2.90;;
84286;SDS011;74445;55.252;61.092;2024-02-04T13:47:44;8.45;;;3.67;;
84286;SDS011;74445;55.252;61.092;2024-02-04T13:50:11;9.85;;;3.33;;
84286;SDS011;74445;55.252;61.092;2024-02-04T13:52:38;7.57;;;3.47;;
84286;SDS011;74445;55.252;61.092;2024-02-04T13:55:05;12.80;;;3.63;;
84286;SDS011;74445;55.252;61.092;2024-02-04T13:57:35;10.20;;;4.68;;
84286;SDS011;74445;55.252;61.092;2024-02-04T14:00:02;11.15;;;4.22;;
84286;SDS011;74445;55.252;61.092;2024-02-04T14:02:30;14.43;;;3.90;;
84286;SDS011;74445;55.252;61.092;2024-02-04T14:04:59;7.00;;;3.63;;
84286;SDS011;74445;55.252;61.092;2024-02-04T14:07:26;5.07;;;2.75;;
84286;SDS011;74445;55.252;61.092;2024-02-04T14:09:53;6.45;;;2.88;;
84286;SDS011;74445;55.252;61.092;2024-02-04T14:12:20;8.23;;;3.97;;
84286;SDS011;74445;55.252;61.092;2024-02-04T14:14:46;10.63;;;3.90;;
84286;SDS011;74445;55.252;61.092;2024-02-04T14:17:13;9.25;;;3.35;;
84286;SDS011;74445;55.252;61.092;2024-02-04T14:19:39;9.05;;;3.88;;
84286;SDS011;74445;55.252;61.092;2024-02-04T14:22:07;10.50;;;4.03;;
84286;SDS011;74445;55.252;61.092;2024-02-04T14:24:34;7.60;;;3.45;;
84286;SDS011;74445;55.252;61.092;2024-02-04T14:27:01;9.02;;;3.40;;
84286;SDS011;74445;55.252;61.092;2024-02-04T14:29:28;9.10;;;3.85;;
84286;SDS011;74445;55.252;61.092;2024-02-04T14:31:54;5.65;;;2.58;;
84286;SDS011;74445;55.252;61.092;2024-02-04T14:34:22;4.90;;;2.97;;
84286;SDS011;74445;55.252;61.092;2024-02-04T14:36:49;7.45;;;3.35;;